sensor_id;sensor_type;location;lat;lon;timestamp;temperature;humidity
4602;DHT22;2313;48.552;9.370;2023-04-01T00:00:50;9.00;99.90
4602;DHT22;2313;48.552;9.370;2023-04-01T00:03:17;9.00;99.90
4602;DHT22;2313;48.552;9.370;2023-04-01T00:05:43;9.00;99.90
4602;DHT22;2313;48.552;9.370;2023-04-01T00:08:08;9.10;99.90
4602;DHT22;2313;48.552;9.370;2023-04-01T00:10:34;9.10;99.90
4602;DHT22;2313;48.552;9.370;2023-04-01T00:13:00;9.10;99.90
4602;DHT22;2313;48.552;9.370;2023-04-01T00:15:26;9.10;99.90
4602;DHT22;2313;48.552;9.370;2023-04-01T00:17:51;9.10;99.90
4602;DHT22;2313;48.552;9.370;2023-04-01T00:20:17;9.10;99.90
4602;DHT22;2313;48.552;9.370;2023-04-01T00:22:43;9.10;99.90
4602;DHT22;2313;48.552;9.370;2023-04-01T00:25:09;9.10;99.90
4602;DHT22;2313;48.552;9.370;2023-04-01T00:27:34;9.10;99.90
4602;DHT22;2313;48.552;9.370;2023-04-01T00:30:00;9.10;99.90
4602;DHT22;2313;48.552;9.370;2023-04-01T00:32:26;9.10;99.90
4602;DHT22;2313;48.552;9.370;2023-04-01T00:34:52;9.00;99.90
4602;DHT22;2313;48.552;9.370;2023-04-01T00:37:19;9.00;99.90
4602;DHT22;2313;48.552;9.370;2023-04-01T00:39:44;9.00;99.90
4602;DHT22;2313;48.552;9.370;2023-04-01T00:42:11;9.00;99.90
4602;DHT22;2313;48.552;9.370;2023-04-01T00:44:38;9.00;99.90
4602;DHT22;2313;48.552;9.370;2023-04-01T00:47:04;9.00;99.90
4602;DHT22;2313;48.552;9.370;2023-04-01T00:49:33;9.10;99.90
4602;DHT22;2313;48.552;9.370;2023-04-01T00:52:02;9.10;99.90
4602;DHT22;2313;48.552;9.370;2023-04-01T00:54:30;9.00;99.90
4602;DHT22;2313;48.552;9.370;2023-04-01T00:57:13;9.00;99.90
4602;DHT22;2313;48.552;9.370;2023-04-01T00:59:46;9.00;99.90
4602;DHT22;2313;48.552;9.370;2023-04-01T01:02:14;8.90;99.90
4602;DHT22;2313;48.552;9.370;2023-04-01T01:04:40;8.90;99.90
4602;DHT22;2313;48.552;9.370;2023-04-01T01:10:06;8.80;99.90
4602;DHT22;2313;48.552;9.370;2023-04-01T01:12:57;8.80;99.90
4602;DHT22;2313;48.552;9.370;2023-04-01T01:15:36;8.80;99.90
4602;DHT22;2313;48.552;9.370;2023-04-01T01:18:16;8.80;99.90
4602;DHT22;2313;48.552;9.370;2023-04-01T01:20:56;8.70;99.90
4602;DHT22;2313;48.552;9.370;2023-04-01T01:31:41;8.70;99.90
4602;DHT22;2313;48.552;9.370;2023-04-01T01:34:27;8.70;99.90
4602;DHT22;2313;48.552;9.370;2023-04-01T01:36:58;8.70;99.90
4602;DHT22;2313;48.552;9.370;2023-04-01T01:39:27;8.70;99.90
4602;DHT22;2313;48.552;9.370;2023-04-01T01:42:01;8.60;99.90
4602;DHT22;2313;48.552;9.370;2023-04-01T01:44:29;8.70;99.90
4602;DHT22;2313;48.552;9.370;2023-04-01T01:46:56;8.60;99.90
4602;DHT22;2313;48.552;9.370;2023-04-01T01:49:23;8.70;99.90
4602;DHT22;2313;48.552;9.370;2023-04-01T01:51:50;8.70;99.90
4602;DHT22;2313;48.552;9.370;2023-04-01T01:54:18;8.70;99.90
4602;DHT22;2313;48.552;9.370;2023-04-01T01:56:48;8.70;99.90
4602;DHT22;2313;48.552;9.370;2023-04-01T01:59:16;8.70;99.90
4602;DHT22;2313;48.552;9.370;2023-04-01T02:01:47;8.70;99.90
4602;DHT22;2313;48.552;9.370;2023-04-01T02:04:14;8.70;99.90
4602;DHT22;2313;48.552;9.370;2023-04-01T02:06:49;8.70;99.90
4602;DHT22;2313;48.552;9.370;2023-04-01T02:09:18;8.70;99.90
4602;DHT22;2313;48.552;9.370;2023-04-01T02:11:51;8.80;99.90
4602;DHT22;2313;48.552;9.370;2023-04-01T02:14:20;8.70;99.90
4602;DHT22;2313;48.552;9.370;2023-04-01T02:19:16;8.70;99.90
4602;DHT22;2313;48.552;9.370;2023-04-01T02:21:51;8.70;99.90
4602;DHT22;2313;48.552;9.370;2023-04-01T02:24:19;8.70;99.90
4602;DHT22;2313;48.552;9.370;2023-04-01T02:26:50;8.70;99.90
4602;DHT22;2313;48.552;9.370;2023-04-01T02:29:18;8.60;99.90
4602;DHT22;2313;48.552;9.370;2023-04-01T02:31:45;8.60;99.90
4602;DHT22;2313;48.552;9.370;2023-04-01T02:34:11;8.70;99.90
4602;DHT22;2313;48.552;9.370;2023-04-01T02:36:38;8.60;99.90
4602;DHT22;2313;48.552;9.370;2023-04-01T02:39:04;8.60;99.90
4602;DHT22;2313;48.552;9.370;2023-04-01T02:41:30;8.50;99.90
4602;DHT22;2313;48.552;9.370;2023-04-01T02:43:56;8.50;99.90
4602;DHT22;2313;48.552;9.370;2023-04-01T02:46:24;8.50;99.90
4602;DHT22;2313;48.552;9.370;2023-04-01T02:48:49;8.50;99.90
4602;DHT22;2313;48.552;9.370;2023-04-01T02:51:15;8.60;99.90
4602;DHT22;2313;48.552;9.370;2023-04-01T02:53:41;8.50;99.90
4602;DHT22;2313;48.552;9.370;2023-04-01T02:56:06;8.50;99.90
4602;DHT22;2313;48.552;9.370;2023-04-01T02:58:32;8.40;99.90
4602;DHT22;2313;48.552;9.370;2023-04-01T03:00:57;8.40;99.90
4602;DHT22;2313;48.552;9.370;2023-04-01T03:03:23;8.30;99.90
4602;DHT22;2313;48.552;9.370;2023-04-01T03:05:49;8.20;99.90
4602;DHT22;2313;48.552;9.370;2023-04-01T03:08:14;8.20;99.90
4602;DHT22;2313;48.552;9.370;2023-04-01T03:10:40;8.10;99.90
4602;DHT22;2313;48.552;9.370;2023-04-01T03:13:06;8.00;99.90
4602;DHT22;2313;48.552;9.370;2023-04-01T03:15:31;8.00;99.90
4602;DHT22;2313;48.552;9.370;2023-04-01T03:17:57;7.90;99.90
4602;DHT22;2313;48.552;9.370;2023-04-01T03:20:23;7.90;99.90
4602;DHT22;2313;48.552;9.370;2023-04-01T03:22:48;7.80;99.90
4602;DHT22;2313;48.552;9.370;2023-04-01T03:25:14;7.80;99.90
4602;DHT22;2313;48.552;9.370;2023-04-01T03:27:40;7.80;99.90
4602;DHT22;2313;48.552;9.370;2023-04-01T03:30:06;7.70;99.90
4602;DHT22;2313;48.552;9.370;2023-04-01T03:32:32;7.60;99.90
4602;DHT22;2313;48.552;9.370;2023-04-01T03:34:58;7.60;99.90
4602;DHT22;2313;48.552;9.370;2023-04-01T03:37:24;7.60;99.90
4602;DHT22;2313;48.552;9.370;2023-04-01T03:39:50;7.50;99.90
4602;DHT22;2313;48.552;9.370;2023-04-01T03:42:16;7.50;99.90
4602;DHT22;2313;48.552;9.370;2023-04-01T03:44:41;7.50;99.90
4602;DHT22;2313;48.552;9.370;2023-04-01T03:47:07;7.50;99.90
4602;DHT22;2313;48.552;9.370;2023-04-01T03:49:34;7.50;99.90
4602;DHT22;2313;48.552;9.370;2023-04-01T03:52:00;7.40;99.90
4602;DHT22;2313;48.552;9.370;2023-04-01T03:54:26;7.40;99.90
4602;DHT22;2313;48.552;9.370;2023-04-01T03:56:51;7.40;99.90
4602;DHT22;2313;48.552;9.370;2023-04-01T03:59:17;7.50;99.90
4602;DHT22;2313;48.552;9.370;2023-04-01T04:01:42;7.50;99.90
4602;DHT22;2313;48.552;9.370;2023-04-01T04:04:11;7.50;99.90
4602;DHT22;2313;48.552;9.370;2023-04-01T04:06:38;7.50;99.90
4602;DHT22;2313;48.552;9.370;2023-04-01T04:09:04;7.50;99.90
4602;DHT22;2313;48.552;9.370;2023-04-01T04:11:31;7.60;99.90
4602;DHT22;2313;48.552;9.370;2023-04-01T04:13:57;7.70;99.90
4602;DHT22;2313;48.552;9.370;2023-04-01T04:16:23;7.70;99.90
4602;DHT22;2313;48.552;9.370;2023-04-01T04:18:48;7.70;99.90
4602;DHT22;2313;48.552;9.370;2023-04-01T04:21:14;7.70;99.90
4602;DHT22;2313;48.552;9.370;2023-04-01T04:23:41;7.80;99.90
4602;DHT22;2313;48.552;9.370;2023-04-01T04:26:09;7.80;99.90
4602;DHT22;2313;48.552;9.370;2023-04-01T04:28:35;7.80;99.90
4602;DHT22;2313;48.552;9.370;2023-04-01T04:31:01;7.80;99.90
4602;DHT22;2313;48.552;9.370;2023-04-01T04:33:27;7.90;99.90
4602;DHT22;2313;48.552;9.370;2023-04-01T04:35:55;7.80;99.90
4602;DHT22;2313;48.552;9.370;2023-04-01T04:38:21;7.90;99.90
4602;DHT22;2313;48.552;9.370;2023-04-01T04:40:46;7.90;99.90
4602;DHT22;2313;48.552;9.370;2023-04-01T04:43:14;7.90;99.90
4602;DHT22;2313;48.552;9.370;2023-04-01T04:45:41;7.90;99.90
4602;DHT22;2313;48.552;9.370;2023-04-01T04:48:11;7.90;99.90
4602;DHT22;2313;48.552;9.370;2023-04-01T04:50:47;7.90;99.90
4602;DHT22;2313;48.552;9.370;2023-04-01T04:53:15;8.00;99.90
4602;DHT22;2313;48.552;9.370;2023-04-01T04:55:48;8.00;99.90
4602;DHT22;2313;48.552;9.370;2023-04-01T04:58:14;8.10;99.90
4602;DHT22;2313;48.552;9.370;2023-04-01T05:00:40;8.10;99.90
4602;DHT22;2313;48.552;9.370;2023-04-01T05:03:06;8.10;99.90
4602;DHT22;2313;48.552;9.370;2023-04-01T05:05:32;8.10;99.90
4602;DHT22;2313;48.552;9.370;2023-04-01T05:07:57;8.10;99.90
4602;DHT22;2313;48.552;9.370;2023-04-01T05:10:23;8.10;99.90
4602;DHT22;2313;48.552;9.370;2023-04-01T05:12:49;8.20;99.90
4602;DHT22;2313;48.552;9.370;2023-04-01T05:15:14;8.20;99.90
4602;DHT22;2313;48.552;9.370;2023-04-01T05:17:40;8.20;99.90
4602;DHT22;2313;48.552;9.370;2023-04-01T05:20:06;8.20;99.90
4602;DHT22;2313;48.552;9.370;2023-04-01T05:22:32;8.20;99.90
4602;DHT22;2313;48.552;9.370;2023-04-01T05:24:58;8.20;99.90
4602;DHT22;2313;48.552;9.370;2023-04-01T05:27:23;8.20;99.90
4602;DHT22;2313;48.552;9.370;2023-04-01T05:29:49;8.20;99.90
4602;DHT22;2313;48.552;9.370;2023-04-01T05:32:15;8.20;99.90
4602;DHT22;2313;48.552;9.370;2023-04-01T05:34:40;8.20;99.90
4602;DHT22;2313;48.552;9.370;2023-04-01T05:37:06;8.30;99.90
4602;DHT22;2313;48.552;9.370;2023-04-01T05:39:38;8.30;99.90
4602;DHT22;2313;48.552;9.370;2023-04-01T05:42:06;8.30;99.90
4602;DHT22;2313;48.552;9.370;2023-04-01T05:44:32;8.40;99.90
4602;DHT22;2313;48.552;9.370;2023-04-01T05:46:57;8.40;99.90
4602;DHT22;2313;48.552;9.370;2023-04-01T05:49:23;8.50;99.90
4602;DHT22;2313;48.552;9.370;2023-04-01T05:51:48;8.50;99.90
4602;DHT22;2313;48.552;9.370;2023-04-01T05:54:14;8.60;99.90
4602;DHT22;2313;48.552;9.370;2023-04-01T05:56:39;8.60;99.90
4602;DHT22;2313;48.552;9.370;2023-04-01T05:59:05;8.70;99.90
4602;DHT22;2313;48.552;9.370;2023-04-01T06:01:31;8.70;99.90
4602;DHT22;2313;48.552;9.370;2023-04-01T06:03:56;8.70;99.90
4602;DHT22;2313;48.552;9.370;2023-04-01T06:06:27;8.80;99.90
4602;DHT22;2313;48.552;9.370;2023-04-01T06:08:53;8.80;99.90
4602;DHT22;2313;48.552;9.370;2023-04-01T06:19:59;9.10;99.90
4602;DHT22;2313;48.552;9.370;2023-04-01T06:22:47;9.00;99.90
4602;DHT22;2313;48.552;9.370;2023-04-01T06:44:23;9.60;99.90
4602;DHT22;2313;48.552;9.370;2023-04-01T06:50:11;9.70;99.90
4602;DHT22;2313;48.552;9.370;2023-04-01T06:56:19;9.60;99.90
4602;DHT22;2313;48.552;9.370;2023-04-01T06:58:49;9.70;99.90
4602;DHT22;2313;48.552;9.370;2023-04-01T07:01:24;9.80;99.90
4602;DHT22;2313;48.552;9.370;2023-04-01T07:06:48;9.70;99.90
4602;DHT22;2313;48.552;9.370;2023-04-01T07:09:20;9.70;99.90
4602;DHT22;2313;48.552;9.370;2023-04-01T07:11:47;9.70;99.90
4602;DHT22;2313;48.552;9.370;2023-04-01T07:14:29;9.70;99.90
4602;DHT22;2313;48.552;9.370;2023-04-01T07:17:17;9.60;99.90
4602;DHT22;2313;48.552;9.370;2023-04-01T07:19:52;9.60;99.90
4602;DHT22;2313;48.552;9.370;2023-04-01T07:22:29;9.60;99.90
4602;DHT22;2313;48.552;9.370;2023-04-01T07:24:59;9.60;99.90
4602;DHT22;2313;48.552;9.370;2023-04-01T07:27:26;9.70;99.90
4602;DHT22;2313;48.552;9.370;2023-04-01T07:29:52;9.70;99.90
4602;DHT22;2313;48.552;9.370;2023-04-01T07:35:11;9.80;99.90
4602;DHT22;2313;48.552;9.370;2023-04-01T07:38:04;9.80;99.90
4602;DHT22;2313;48.552;9.370;2023-04-01T07:40:40;9.90;99.90
4602;DHT22;2313;48.552;9.370;2023-04-01T07:46:18;9.90;99.90
4602;DHT22;2313;48.552;9.370;2023-04-01T07:48:55;9.90;99.90
4602;DHT22;2313;48.552;9.370;2023-04-01T07:51:54;9.90;99.90
4602;DHT22;2313;48.552;9.370;2023-04-01T07:57:12;9.90;99.90
4602;DHT22;2313;48.552;9.370;2023-04-01T08:00:08;9.90;99.90
4602;DHT22;2313;48.552;9.370;2023-04-01T08:02:50;10.00;99.90
4602;DHT22;2313;48.552;9.370;2023-04-01T08:20:59;10.00;99.90
4602;DHT22;2313;48.552;9.370;2023-04-01T08:23:41;10.00;99.90
4602;DHT22;2313;48.552;9.370;2023-04-01T08:28:59;10.00;99.90
4602;DHT22;2313;48.552;9.370;2023-04-01T08:31:39;10.00;99.90
4602;DHT22;2313;48.552;9.370;2023-04-01T08:34:16;10.00;99.90
4602;DHT22;2313;48.552;9.370;2023-04-01T08:36:47;10.00;99.90
4602;DHT22;2313;48.552;9.370;2023-04-01T08:39:36;9.90;99.90
4602;DHT22;2313;48.552;9.370;2023-04-01T08:42:07;10.00;99.90
4602;DHT22;2313;48.552;9.370;2023-04-01T08:44:52;10.00;99.90
4602;DHT22;2313;48.552;9.370;2023-04-01T08:47:56;10.10;99.90
4602;DHT22;2313;48.552;9.370;2023-04-01T08:50:58;10.10;99.90
4602;DHT22;2313;48.552;9.370;2023-04-01T08:53:43;10.20;99.90
4602;DHT22;2313;48.552;9.370;2023-04-01T08:58:54;10.20;99.90
4602;DHT22;2313;48.552;9.370;2023-04-01T09:18:16;9.90;99.90
4602;DHT22;2313;48.552;9.370;2023-04-01T09:23:36;9.80;99.90
4602;DHT22;2313;48.552;9.370;2023-04-01T09:29:34;9.70;99.90
4602;DHT22;2313;48.552;9.370;2023-04-01T09:34:53;10.00;99.90
4602;DHT22;2313;48.552;9.370;2023-04-01T09:43:47;10.30;99.90
4602;DHT22;2313;48.552;9.370;2023-04-01T09:48:59;10.40;99.90
4602;DHT22;2313;48.552;9.370;2023-04-01T09:54:32;10.30;99.90
4602;DHT22;2313;48.552;9.370;2023-04-01T10:02:33;9.80;99.90
4602;DHT22;2313;48.552;9.370;2023-04-01T10:05:30;9.80;99.90
4602;DHT22;2313;48.552;9.370;2023-04-01T10:11:15;10.00;99.90
4602;DHT22;2313;48.552;9.370;2023-04-01T10:22:35;10.00;99.90
4602;DHT22;2313;48.552;9.370;2023-04-01T10:30:48;9.90;99.90
4602;DHT22;2313;48.552;9.370;2023-04-01T10:33:59;9.80;99.90
4602;DHT22;2313;48.552;9.370;2023-04-01T10:50:21;9.20;99.90
4602;DHT22;2313;48.552;9.370;2023-04-01T11:20:02;9.40;99.90
4602;DHT22;2313;48.552;9.370;2023-04-01T11:22:47;9.60;99.90
4602;DHT22;2313;48.552;9.370;2023-04-01T11:25:38;9.60;99.90
4602;DHT22;2313;48.552;9.370;2023-04-01T11:34:16;9.60;99.90
4602;DHT22;2313;48.552;9.370;2023-04-01T12:07:27;9.70;99.90
4602;DHT22;2313;48.552;9.370;2023-04-01T12:18:55;10.40;99.90
4602;DHT22;2313;48.552;9.370;2023-04-01T12:21:36;10.60;99.90
4602;DHT22;2313;48.552;9.370;2023-04-01T12:27:05;10.40;99.90
4602;DHT22;2313;48.552;9.370;2023-04-01T12:36:00;10.30;99.90
4602;DHT22;2313;48.552;9.370;2023-04-01T12:52:14;10.20;99.90
4602;DHT22;2313;48.552;9.370;2023-04-01T12:55:25;10.20;99.90
4602;DHT22;2313;48.552;9.370;2023-04-01T13:01:16;10.20;99.90
4602;DHT22;2313;48.552;9.370;2023-04-01T13:12:05;10.40;99.90
4602;DHT22;2313;48.552;9.370;2023-04-01T13:28:23;10.60;99.90
4602;DHT22;2313;48.552;9.370;2023-04-01T13:42:33;11.00;99.90
4602;DHT22;2313;48.552;9.370;2023-04-01T13:56:40;11.00;99.90
4602;DHT22;2313;48.552;9.370;2023-04-01T14:05:38;10.80;99.90
4602;DHT22;2313;48.552;9.370;2023-04-01T14:08:25;10.60;99.90
4602;DHT22;2313;48.552;9.370;2023-04-01T14:25:18;10.60;99.90
4602;DHT22;2313;48.552;9.370;2023-04-01T14:38:26;10.70;99.90
4602;DHT22;2313;48.552;9.370;2023-04-01T14:49:32;10.70;99.90
4602;DHT22;2313;48.552;9.370;2023-04-01T14:52:09;10.60;99.90
4602;DHT22;2313;48.552;9.370;2023-04-01T14:54:38;10.60;99.90
4602;DHT22;2313;48.552;9.370;2023-04-01T14:57:10;10.60;99.90
4602;DHT22;2313;48.552;9.370;2023-04-01T14:59:41;10.60;99.90
4602;DHT22;2313;48.552;9.370;2023-04-01T15:02:45;10.60;99.90
4602;DHT22;2313;48.552;9.370;2023-04-01T15:13:19;10.60;99.90
4602;DHT22;2313;48.552;9.370;2023-04-01T15:19:09;10.70;99.90
4602;DHT22;2313;48.552;9.370;2023-04-01T15:25:43;10.70;99.90
4602;DHT22;2313;48.552;9.370;2023-04-01T15:28:02;10.60;99.90
4602;DHT22;2313;48.552;9.370;2023-04-01T15:33:14;10.80;99.90
4602;DHT22;2313;48.552;9.370;2023-04-01T15:52:23;10.70;99.90
4602;DHT22;2313;48.552;9.370;2023-04-01T15:55:07;10.60;99.90
4602;DHT22;2313;48.552;9.370;2023-04-01T16:00:30;10.60;99.90
4602;DHT22;2313;48.552;9.370;2023-04-01T16:03:06;10.50;99.90
4602;DHT22;2313;48.552;9.370;2023-04-01T16:17:02;10.40;99.90
4602;DHT22;2313;48.552;9.370;2023-04-01T16:22:28;10.30;99.90
4602;DHT22;2313;48.552;9.370;2023-04-01T16:27:54;10.30;99.90
4602;DHT22;2313;48.552;9.370;2023-04-01T16:30:36;10.20;99.90
4602;DHT22;2313;48.552;9.370;2023-04-01T16:35:52;10.20;99.90
4602;DHT22;2313;48.552;9.370;2023-04-01T16:41:05;10.20;99.90
4602;DHT22;2313;48.552;9.370;2023-04-01T16:51:23;10.10;99.90
4602;DHT22;2313;48.552;9.370;2023-04-01T16:54:13;10.10;99.90
4602;DHT22;2313;48.552;9.370;2023-04-01T16:57:19;10.10;99.90
4602;DHT22;2313;48.552;9.370;2023-04-01T16:59:52;10.10;99.90
4602;DHT22;2313;48.552;9.370;2023-04-01T17:02:58;10.10;99.90
4602;DHT22;2313;48.552;9.370;2023-04-01T17:05:16;10.10;99.90
4602;DHT22;2313;48.552;9.370;2023-04-01T17:08:46;10.10;99.90
4602;DHT22;2313;48.552;9.370;2023-04-01T17:10:53;10.10;99.90
4602;DHT22;2313;48.552;9.370;2023-04-01T17:13:38;10.10;99.90
4602;DHT22;2313;48.552;9.370;2023-04-01T17:16:20;10.10;99.90
4602;DHT22;2313;48.552;9.370;2023-04-01T17:21:57;10.10;99.90
4602;DHT22;2313;48.552;9.370;2023-04-01T17:24:57;10.10;99.90
4602;DHT22;2313;48.552;9.370;2023-04-01T17:27:59;10.10;99.90
4602;DHT22;2313;48.552;9.370;2023-04-01T17:38:08;10.10;99.90
4602;DHT22;2313;48.552;9.370;2023-04-01T17:46:29;10.10;99.90
4602;DHT22;2313;48.552;9.370;2023-04-01T18:00:19;10.10;99.90
4602;DHT22;2313;48.552;9.370;2023-04-01T18:11:40;10.10;99.90
4602;DHT22;2313;48.552;9.370;2023-04-01T18:14:30;10.10;99.90
4602;DHT22;2313;48.552;9.370;2023-04-01T18:19:56;10.10;99.90
4602;DHT22;2313;48.552;9.370;2023-04-01T18:25:38;10.10;99.90
4602;DHT22;2313;48.552;9.370;2023-04-01T18:30:40;10.10;99.90
4602;DHT22;2313;48.552;9.370;2023-04-01T18:33:29;10.10;99.90
4602;DHT22;2313;48.552;9.370;2023-04-01T18:38:47;10.10;99.90
4602;DHT22;2313;48.552;9.370;2023-04-01T18:41:34;10.10;99.90
4602;DHT22;2313;48.552;9.370;2023-04-01T18:47:16;10.10;99.90
4602;DHT22;2313;48.552;9.370;2023-04-01T18:50:13;10.10;99.90
4602;DHT22;2313;48.552;9.370;2023-04-01T18:52:44;10.10;99.90
4602;DHT22;2313;48.552;9.370;2023-04-01T18:57:50;10.00;99.90
4602;DHT22;2313;48.552;9.370;2023-04-01T19:00:22;9.90;99.90
4602;DHT22;2313;48.552;9.370;2023-04-01T19:02:58;9.80;99.90
4602;DHT22;2313;48.552;9.370;2023-04-01T19:05:34;9.70;99.90
4602;DHT22;2313;48.552;9.370;2023-04-01T19:08:34;9.50;99.90
4602;DHT22;2313;48.552;9.370;2023-04-01T19:16:40;9.10;99.90
4602;DHT22;2313;48.552;9.370;2023-04-01T19:19:19;9.10;99.90
4602;DHT22;2313;48.552;9.370;2023-04-01T19:24:32;9.00;99.90
4602;DHT22;2313;48.552;9.370;2023-04-01T19:32:42;8.70;99.90
4602;DHT22;2313;48.552;9.370;2023-04-01T19:35:36;8.70;99.90
4602;DHT22;2313;48.552;9.370;2023-04-01T19:38:37;8.60;99.90
4602;DHT22;2313;48.552;9.370;2023-04-01T19:41:23;8.60;99.90
4602;DHT22;2313;48.552;9.370;2023-04-01T19:52:23;8.30;99.90
4602;DHT22;2313;48.552;9.370;2023-04-01T20:02:58;8.30;99.90
4602;DHT22;2313;48.552;9.370;2023-04-01T20:06:31;8.30;99.90
4602;DHT22;2313;48.552;9.370;2023-04-01T20:17:20;8.10;99.90
4602;DHT22;2313;48.552;9.370;2023-04-01T20:44:46;8.00;99.90
4602;DHT22;2313;48.552;9.370;2023-04-01T20:47:49;8.10;99.90
4602;DHT22;2313;48.552;9.370;2023-04-01T21:04:30;8.60;99.90
4602;DHT22;2313;48.552;9.370;2023-04-01T21:13:15;8.70;99.90
4602;DHT22;2313;48.552;9.370;2023-04-01T21:26:30;8.80;99.90
4602;DHT22;2313;48.552;9.370;2023-04-01T21:34:41;8.90;99.90
4602;DHT22;2313;48.552;9.370;2023-04-01T21:37:48;8.90;99.90
4602;DHT22;2313;48.552;9.370;2023-04-01T21:40:45;9.00;99.90
4602;DHT22;2313;48.552;9.370;2023-04-01T21:46:03;8.90;99.90
4602;DHT22;2313;48.552;9.370;2023-04-01T21:48:45;8.80;99.90
4602;DHT22;2313;48.552;9.370;2023-04-01T21:56:52;8.80;99.90
4602;DHT22;2313;48.552;9.370;2023-04-01T22:07:31;8.50;99.90
4602;DHT22;2313;48.552;9.370;2023-04-01T22:10:15;8.50;99.90
4602;DHT22;2313;48.552;9.370;2023-04-01T22:12:47;8.40;99.90
4602;DHT22;2313;48.552;9.370;2023-04-01T22:23:42;8.40;99.90
4602;DHT22;2313;48.552;9.370;2023-04-01T22:32:03;8.20;99.90
4602;DHT22;2313;48.552;9.370;2023-04-01T22:34:42;8.20;99.90
4602;DHT22;2313;48.552;9.370;2023-04-01T22:37:29;8.20;99.90
4602;DHT22;2313;48.552;9.370;2023-04-01T22:43:05;8.10;99.90
4602;DHT22;2313;48.552;9.370;2023-04-01T22:48:31;8.10;99.90
4602;DHT22;2313;48.552;9.370;2023-04-01T22:51:18;8.10;99.90
4602;DHT22;2313;48.552;9.370;2023-04-01T22:56:43;8.10;99.90
4602;DHT22;2313;48.552;9.370;2023-04-01T23:01:50;8.10;99.90
4602;DHT22;2313;48.552;9.370;2023-04-01T23:04:22;8.10;99.90
4602;DHT22;2313;48.552;9.370;2023-04-01T23:06:55;8.00;99.90
4602;DHT22;2313;48.552;9.370;2023-04-01T23:09:31;8.00;99.90
4602;DHT22;2313;48.552;9.370;2023-04-01T23:12:07;8.00;99.90
4602;DHT22;2313;48.552;9.370;2023-04-01T23:14:57;8.00;99.90
4602;DHT22;2313;48.552;9.370;2023-04-01T23:23:24;8.00;99.90
4602;DHT22;2313;48.552;9.370;2023-04-01T23:28:58;8.00;99.90
4602;DHT22;2313;48.552;9.370;2023-04-01T23:36:43;8.00;99.90
4602;DHT22;2313;48.552;9.370;2023-04-01T23:41:53;8.00;99.90
4602;DHT22;2313;48.552;9.370;2023-04-01T23:44:19;8.10;99.90
4602;DHT22;2313;48.552;9.370;2023-04-01T23:46:47;8.10;99.90
4602;DHT22;2313;48.552;9.370;2023-04-01T23:49:17;8.10;99.90
4602;DHT22;2313;48.552;9.370;2023-04-01T23:51:55;8.10;99.90
4602;DHT22;2313;48.552;9.370;2023-04-01T23:54:31;8.10;99.90
4602;DHT22;2313;48.552;9.370;2023-04-01T23:56:58;8.10;99.90
4602;DHT22;2313;48.552;9.370;2023-04-01T23:59:29;8.10;99.90
